Grouse Creek, UT (84313)

10:17 AM MDT on July 23, 2014 (GMT -0600)
RAWS ROSEBUD UT US (MRSBU1) Elev 4986 ft | 41.61 °N, 113.59 °W | Change Station
Active Advisory: Fire Weather Warning

Current weather conditions updated 35 minutes ago

Clear
Clear
87 °F
Feels Like 83 °F
N
2
Wind Variable Wind from East
Gusts 9.0 mph

Today is forecast to be Warmer than yesterday.

Today
High -- | Low -- °F
--% Chance of Precip.
Yesterday
High -- | Low -- °F
Precip. -- in
6:21 AM 9:01 PM
Waning Crescent, 10% visible
Pressure 28.99 in
Visibility -9999.0 miles
Clouds Clear
Heat Index 83 °F
Dew Point 26 °F
Humidity 11%
Rainfall 0.00 in
Snow Depth Not available.
UV 3 out of 12
Pollen 5.90 out of 12
Ozone Good
PM2.5 Good
Flu Activity Not available.
METAR KU16 231458Z AUTO 22006KT CLR 29/M02 A3012 RMK AO2 SLP817 T02941022 51012 $

More Conditions Fewer Conditions

Pressure 28.99 in
Visibility -9999.0 miles
Clouds Clear
Heat Index 83 °F
Dew Point 26 °F
Humidity 11%
Rainfall 0.00 in
Snow Depth Not available.
UV 3 out of 12
Pollen 5.90 out of 12
Ozone Good
PM2.5 Good
Flu Activity Not available.
METAR KU16 231458Z AUTO 22006KT CLR 29/M02 A3012 RMK AO2 SLP817 T02941022 51012 $

More Conditions Fewer Conditions

10-Day Weather Forecast

Almanac

Astronomy

Jul. 23, 2014 Rise Set
Actual Time 6:21 AM MDT 9:01 PM MDT
Civil Twilight 5:49 AM MDT 9:33 PM MDT
Nautical Twilight 5:09 AM MDT 10:13 PM MDT
Astronomical Twilight 4:23 AM MDT 10:58 PM MDT
Moon 3:43 AM MDT 6:32 PM MDT
Length of Visible Light 15h 43m
Length of Day
14h 39m
Tomorrow will be 1m 48s shorter.
Waning Crescent, 10% of the Moon is Illuminated
Today
Waning Crescent
Jul 26
New
Aug 3
First Quarter
Aug 10
Full
Aug 17
Last Quarter

Today's Extremes

State Highs State Lows

Community

WunderPhotos

Upload Photos

1,736,660 photos uploaded!

Nearby

Air Quality

  Air Quality AQ Index Pollutant
Yesterday Moderate
OZONE
Yesterday Good
PM2.5
Current Good
PM2.5
Current Good
OZONE

Snow Depth

Station Depth Elevation
Ben Lomond Trail 2 in 6000 ft
Little Bear 0 in 6550 ft
Dry Fork 0 in 7160 ft
Rocky Basin-Settlement 0 in 8900 ft
Louis Meadow 0 in 6700 ft

Earthquake Activity

City Distance Mag. Time & Date
No recent earthquake activity has been reported nearby.
Minimum magnitude displayed is 2.5.

Coastal Water Temperatures

Place Temperature
No Stations Reporting

Nearby Weather Stations

Station Location Temp. Heat Index Dew Point Humidity Wind Precip. Elev Updated Type
RAWS ROSEBUD UT, Grouse Creek, UT 87 °F 83 °F 26 °F 11% East  at  2 mph 0.00 in / hr 4986 ft 9:42 AM MDT MADIS
MesoWest MNTLE1 , Montello, NV 73 °F 71 °F - - North  at  - 0.00 in / hr 4833 ft 8:00 AM PDT MADIS
MesoWest GROUSE CREEK , Grouse Creek, UT 77 °F 77 °F 29 °F 17% SE  at  1 mph 0.00 in / hr 5845 ft 9:00 AM MDT MADIS

Show More Stations Show Fewer Stations